createdAt,value
2018-03-03T00:00:22.528Z,8.97
2018-03-03T00:02:50.795Z,6.37
2018-03-03T00:05:19.267Z,7.80
2018-03-03T00:07:47.537Z,8.57
2018-03-03T00:10:15.836Z,7.30
2018-03-03T00:12:44.684Z,7.50
2018-03-03T00:15:13.715Z,7.57
2018-03-03T00:17:42.753Z,8.83
2018-03-03T00:20:10.248Z,8.13
2018-03-03T00:22:41.260Z,8.67
2018-03-03T00:25:10.139Z,7.60
2018-03-03T00:27:37.637Z,7.07
2018-03-03T00:30:06.269Z,8.60
2018-03-03T00:32:34.915Z,7.30
2018-03-03T00:35:03.550Z,8.03
2018-03-03T00:37:32.210Z,7.33
2018-03-03T00:40:00.852Z,7.57
2018-03-03T00:42:30.052Z,7.03
2018-03-03T00:44:59.078Z,7.93
2018-03-03T00:47:27.618Z,7.53
2018-03-03T00:49:58.268Z,8.33
2018-03-03T00:52:26.921Z,7.77
2018-03-03T00:54:55.948Z,7.73
2018-03-03T00:57:24.800Z,8.67
2018-03-03T00:59:55.074Z,8.00
2018-03-03T01:02:23.336Z,7.30
2018-03-03T01:04:52.376Z,7.87
2018-03-03T01:07:19.881Z,7.90
2018-03-03T01:09:48.908Z,8.80
2018-03-03T01:12:17.542Z,7.40
2018-03-03T01:14:47.405Z,8.10
2018-03-03T01:17:15.699Z,8.37
2018-03-03T01:19:45.620Z,7.93
2018-03-03T01:22:13.116Z,7.83
2018-03-03T01:24:41.992Z,6.97
2018-03-03T01:27:10.620Z,8.90
2018-03-03T01:29:38.915Z,8.17
2018-03-03T01:32:06.408Z,8.50
2018-03-03T01:34:36.009Z,7.33
2018-03-03T01:37:04.292Z,8.47
2018-03-03T01:39:32.557Z,7.83
2018-03-03T01:42:00.816Z,8.27
2018-03-03T01:44:29.096Z,8.57
2018-03-03T01:47:00.070Z,8.30
2018-03-03T01:49:27.589Z,8.67
2018-03-03T01:51:56.614Z,7.60
2018-03-03T01:54:24.108Z,9.00
2018-03-03T01:56:51.624Z,6.80
2018-03-03T01:59:19.120Z,8.07
2018-03-03T02:01:49.426Z,8.60
2018-03-03T02:04:18.467Z,8.03
2018-03-03T02:06:46.813Z,7.57
2018-03-03T02:09:15.120Z,10.30
2018-03-03T02:11:42.622Z,8.80
2018-03-03T02:14:10.608Z,8.57
2018-03-03T02:16:38.904Z,7.63
2018-03-03T02:19:06.422Z,7.57
2018-03-03T02:21:35.096Z,8.90
2018-03-03T02:24:03.593Z,6.47
2018-03-03T02:26:31.896Z,7.90
2018-03-03T02:29:00.324Z,7.60
2018-03-03T02:31:27.897Z,8.10
2018-03-03T02:33:55.397Z,7.10
2018-03-03T02:36:24.434Z,7.40
2018-03-03T02:38:52.016Z,7.47
2018-03-03T02:41:19.596Z,8.27
2018-03-03T02:43:48.078Z,8.40
2018-03-03T02:46:16.499Z,8.50
2018-03-03T02:48:44.934Z,7.87
2018-03-03T02:51:12.566Z,9.30
2018-03-03T02:53:40.844Z,8.67
2018-03-03T02:56:08.370Z,7.93
2018-03-03T02:58:36.638Z,7.83
2018-03-03T03:01:04.582Z,8.17
2018-03-03T03:03:32.104Z,9.13
2018-03-03T03:06:00.741Z,9.00
2018-03-03T03:08:31.496Z,8.97
2018-03-03T03:10:59.758Z,7.47
2018-03-03T03:13:28.891Z,7.90
2018-03-03T03:15:56.415Z,7.30
2018-03-03T03:18:24.706Z,7.83
2018-03-03T03:20:53.715Z,7.43
2018-03-03T03:23:21.287Z,7.63
2018-03-03T03:25:50.833Z,7.07
2018-03-03T03:28:19.151Z,8.53
2018-03-03T03:30:47.508Z,8.63
2018-03-03T03:33:16.218Z,9.70
2018-03-03T03:35:46.145Z,8.13
2018-03-03T03:38:14.967Z,8.30
2018-03-03T03:40:42.529Z,7.13
2018-03-03T03:43:11.565Z,8.13
2018-03-03T03:45:39.897Z,9.03
2018-03-03T03:48:08.165Z,9.87
2018-03-03T03:50:36.484Z,9.40
2018-03-03T03:53:04.826Z,7.90
2018-03-03T03:55:32.379Z,8.00
2018-03-03T03:58:00.744Z,9.50
2018-03-03T04:00:29.017Z,7.97
2018-03-03T04:02:57.297Z,9.37
2018-03-03T04:05:24.800Z,8.70
2018-03-03T04:07:53.665Z,7.90
2018-03-03T04:10:21.573Z,9.20
2018-03-03T04:12:49.837Z,9.00
2018-03-03T04:15:19.321Z,8.40
2018-03-03T04:17:47.580Z,8.80
2018-03-03T04:20:15.872Z,9.23
2018-03-03T04:22:44.148Z,8.23
2018-03-03T04:25:11.651Z,9.50
2018-03-03T04:27:39.164Z,9.33
2018-03-03T04:30:07.594Z,8.13
2018-03-03T04:32:35.144Z,7.63
2018-03-03T04:35:02.688Z,8.70
2018-03-03T04:37:30.219Z,8.90
2018-03-03T04:39:57.704Z,8.73
2018-03-03T04:42:25.225Z,8.60
2018-03-03T04:44:53.490Z,8.67
2018-03-03T04:47:21.754Z,8.57
2018-03-03T04:49:50.041Z,8.60
2018-03-03T04:52:18.304Z,9.40
2018-03-03T04:54:46.613Z,8.60
2018-03-03T04:57:14.130Z,10.20
2018-03-03T04:59:47.452Z,9.23
2018-03-03T05:02:15.480Z,8.37
2018-03-03T05:04:57.882Z,8.23
2018-03-03T05:07:31.169Z,9.27
2018-03-03T05:09:58.689Z,8.60
2018-03-03T05:15:37.233Z,9.00
2018-03-03T05:18:08.160Z,9.97
2018-03-03T05:20:41.243Z,8.17
2018-03-03T05:23:14.363Z,9.80
2018-03-03T05:25:47.604Z,8.10
2018-03-03T05:31:40.016Z,8.67
2018-03-03T05:34:13.165Z,9.37
2018-03-03T05:36:55.556Z,9.10
2018-03-03T05:39:29.418Z,8.70
2018-03-03T05:42:06.853Z,8.80
2018-03-03T05:44:40.835Z,9.50
2018-03-03T05:47:14.150Z,9.90
2018-03-03T05:52:47.519Z,10.00
2018-03-03T05:55:20.720Z,9.10
2018-03-03T05:57:54.089Z,10.50
2018-03-03T06:00:27.296Z,9.13
2018-03-03T06:03:13.637Z,8.80
2018-03-03T06:05:57.560Z,10.00
2018-03-03T06:08:30.745Z,8.97
2018-03-03T06:11:00.713Z,8.00
2018-03-03T06:13:28.236Z,10.90
2018-03-03T06:15:55.737Z,10.40
2018-03-03T06:18:23.235Z,8.77
2018-03-03T06:20:52.720Z,7.80
2018-03-03T06:23:20.233Z,8.33
2018-03-03T06:25:47.748Z,8.80
2018-03-03T06:28:15.272Z,8.47
2018-03-03T06:30:42.792Z,9.73
2018-03-03T06:33:11.048Z,10.33
2018-03-03T06:35:39.492Z,9.10
2018-03-03T06:38:07.005Z,8.47
2018-03-03T06:40:35.264Z,9.40
2018-03-03T06:43:02.790Z,9.53
2018-03-03T06:45:30.989Z,8.63
2018-03-03T06:47:58.508Z,8.70
2018-03-03T06:50:26.964Z,10.17
2018-03-03T06:52:54.465Z,8.47
2018-03-03T06:55:21.985Z,9.63
2018-03-03T06:57:49.476Z,9.40
2018-03-03T07:00:17.005Z,9.40
2018-03-03T07:02:44.505Z,8.33
2018-03-03T07:05:12.052Z,9.20
2018-03-03T07:07:39.577Z,8.93
2018-03-03T07:10:07.092Z,9.33
2018-03-03T07:12:35.357Z,8.43
2018-03-03T07:15:08.000Z,8.50
2018-03-03T07:17:35.497Z,8.10
2018-03-03T07:20:03.788Z,8.27
2018-03-03T07:22:33.062Z,8.83
2018-03-03T07:25:00.505Z,9.40
2018-03-03T07:27:28.016Z,9.00
2018-03-03T07:29:56.485Z,9.37
2018-03-03T07:32:24.789Z,9.50
2018-03-03T07:34:52.285Z,8.80
2018-03-03T07:37:19.811Z,8.03
2018-03-03T07:39:47.300Z,8.63
2018-03-03T07:42:14.833Z,8.13
2018-03-03T07:44:42.329Z,7.87
2018-03-03T07:47:09.821Z,9.10
2018-03-03T07:49:37.332Z,8.93
2018-03-03T07:52:05.791Z,8.90
2018-03-03T07:54:33.317Z,7.50
2018-03-03T07:57:12.676Z,9.37
2018-03-03T07:59:41.148Z,7.90
2018-03-03T08:02:08.652Z,10.00
2018-03-03T08:04:36.942Z,7.97
2018-03-03T08:07:05.200Z,8.93
2018-03-03T08:09:32.696Z,8.43
2018-03-03T08:12:02.211Z,8.07
2018-03-03T08:14:29.726Z,10.70
2018-03-03T08:16:58.969Z,8.37
2018-03-03T08:19:26.469Z,9.40
2018-03-03T08:21:53.995Z,8.30
2018-03-03T08:24:21.500Z,8.27
2018-03-03T08:26:49.785Z,9.73
2018-03-03T08:29:17.299Z,8.33
2018-03-03T08:31:44.828Z,8.40
2018-03-03T08:34:13.312Z,9.23
2018-03-03T08:36:40.808Z,9.17
2018-03-03T08:39:09.102Z,7.33
2018-03-03T08:41:37.361Z,9.00
2018-03-03T08:44:05.632Z,7.40
2018-03-03T08:46:33.157Z,7.60
2018-03-03T08:49:00.660Z,7.07
2018-03-03T08:51:28.960Z,8.23
2018-03-03T08:53:56.451Z,9.67
2018-03-03T08:56:23.964Z,8.27
2018-03-03T08:58:51.480Z,8.77
2018-03-03T09:01:18.994Z,8.43
2018-03-03T09:03:46.484Z,8.50
2018-03-03T09:06:14.002Z,8.57
2018-03-03T09:08:41.541Z,9.70
2018-03-03T09:11:09.799Z,8.30
2018-03-03T09:13:38.089Z,6.63
2018-03-03T09:16:06.356Z,8.17
2018-03-03T09:18:34.636Z,7.20
2018-03-03T09:21:02.916Z,7.53
2018-03-03T09:23:31.200Z,8.07
2018-03-03T09:25:58.700Z,8.17
2018-03-03T09:28:26.188Z,7.20
2018-03-03T09:30:54.470Z,7.50
2018-03-03T09:33:22.728Z,7.53
2018-03-03T09:35:50.243Z,8.33
2018-03-03T09:38:17.737Z,8.10
2018-03-03T09:40:45.260Z,7.30
2018-03-03T09:43:12.757Z,7.33
2018-03-03T09:45:42.746Z,8.00
2018-03-03T09:48:10.249Z,9.00
2018-03-03T09:50:38.560Z,7.17
2018-03-03T09:53:06.052Z,8.57
2018-03-03T09:55:33.560Z,9.23
2018-03-03T09:58:01.080Z,7.53
2018-03-03T10:00:29.343Z,8.87
2018-03-03T10:03:00.312Z,7.90
2018-03-03T10:05:28.595Z,6.47
2018-03-03T10:07:56.128Z,6.60
2018-03-03T10:10:23.625Z,7.30
2018-03-03T10:12:51.136Z,8.03
2018-03-03T10:15:20.368Z,7.73
2018-03-03T10:17:47.884Z,8.20
2018-03-03T10:20:17.087Z,7.33
2018-03-03T10:22:44.577Z,7.17
2018-03-03T10:25:12.096Z,7.17
2018-03-03T10:27:40.020Z,8.97
2018-03-03T10:30:07.541Z,7.50
2018-03-03T10:32:35.813Z,7.00
2018-03-03T10:35:04.885Z,8.07
2018-03-03T10:37:32.385Z,6.10
2018-03-03T10:39:59.895Z,6.63
2018-03-03T10:42:28.356Z,7.13
2018-03-03T10:44:55.884Z,7.13
2018-03-03T10:47:23.391Z,5.80
2018-03-03T10:49:51.829Z,7.40
2018-03-03T10:52:19.348Z,7.50
2018-03-03T10:54:48.584Z,5.93
2018-03-03T10:57:16.104Z,6.50
2018-03-03T10:59:44.372Z,7.00
2018-03-03T11:02:12.676Z,7.83
2018-03-03T11:04:40.282Z,7.33
2018-03-03T11:07:07.800Z,7.13
2018-03-03T11:09:35.292Z,7.00
2018-03-03T11:12:02.822Z,6.50
2018-03-03T11:14:30.344Z,7.57
2018-03-03T11:16:58.612Z,7.60
2018-03-03T11:19:26.900Z,6.83
2018-03-03T11:21:55.193Z,7.33
2018-03-03T11:24:23.660Z,8.13
2018-03-03T11:26:51.922Z,6.10
2018-03-03T11:29:20.205Z,7.23
2018-03-03T11:31:48.464Z,6.43
2018-03-03T11:34:16.740Z,6.77
2018-03-03T11:36:44.249Z,7.43
2018-03-03T11:39:11.738Z,5.77
2018-03-03T11:41:39.289Z,6.87
2018-03-03T11:44:07.570Z,5.47
2018-03-03T11:46:35.112Z,6.93
2018-03-03T11:49:02.600Z,6.70
2018-03-03T11:51:32.827Z,6.30
2018-03-03T11:54:01.125Z,5.97
2018-03-03T11:56:28.632Z,5.47
2018-03-03T11:58:56.120Z,6.67
2018-03-03T12:01:24.416Z,5.63
2018-03-03T12:03:53.897Z,6.47
2018-03-03T12:06:22.185Z,6.03
2018-03-03T12:08:50.448Z,4.60
2018-03-03T12:11:18.708Z,6.40
2018-03-03T12:13:46.996Z,5.63
2018-03-03T12:16:15.281Z,5.60
2018-03-03T12:18:43.565Z,5.90
2018-03-03T12:21:11.855Z,6.93
2018-03-03T12:23:39.348Z,6.37
2018-03-03T12:26:06.904Z,6.67
2018-03-03T12:28:35.396Z,6.77
2018-03-03T12:31:02.907Z,6.03
2018-03-03T12:33:30.465Z,5.93
2018-03-03T12:35:57.968Z,6.00
2018-03-03T12:38:25.498Z,5.70
2018-03-03T12:40:52.995Z,5.27
2018-03-03T12:43:22.951Z,5.50
2018-03-03T12:45:50.473Z,5.37
2018-03-03T12:48:18.760Z,6.17
2018-03-03T12:50:47.025Z,5.10
2018-03-03T12:53:15.341Z,5.73
2018-03-03T12:55:42.842Z,4.53
2018-03-03T12:58:10.360Z,4.73
2018-03-03T13:00:37.860Z,5.37
2018-03-03T13:03:05.348Z,5.13
2018-03-03T13:05:32.861Z,5.43
2018-03-03T13:08:00.366Z,5.23
2018-03-03T13:10:28.846Z,5.10
2018-03-03T13:12:56.416Z,5.67
2018-03-03T13:15:24.153Z,5.90
2018-03-03T13:17:51.842Z,5.73
2018-03-03T13:20:19.358Z,6.30
2018-03-03T13:22:47.616Z,4.73
2018-03-03T13:25:15.142Z,5.47
2018-03-03T13:27:42.677Z,4.80
2018-03-03T13:30:10.176Z,4.83
2018-03-03T13:32:37.704Z,4.87
2018-03-03T13:35:05.197Z,4.50
2018-03-03T13:37:34.664Z,4.30
2018-03-03T13:40:02.164Z,4.87
2018-03-03T13:42:29.684Z,4.73
2018-03-03T13:44:57.198Z,5.47
2018-03-03T13:47:25.472Z,4.10
2018-03-03T13:49:53.753Z,5.30
2018-03-03T13:52:22.014Z,5.40
2018-03-03T13:54:50.304Z,5.73
2018-03-03T13:57:18.572Z,3.97
2018-03-03T13:59:46.848Z,3.77
2018-03-03T14:02:15.108Z,5.20
2018-03-03T14:04:42.608Z,4.27
2018-03-03T14:07:10.394Z,5.03
2018-03-03T14:09:37.908Z,4.80
2018-03-03T14:12:07.452Z,4.73
2018-03-03T14:14:34.979Z,4.33
2018-03-03T14:17:02.505Z,3.77
2018-03-03T14:19:31.768Z,3.90
2018-03-03T14:21:59.427Z,4.27
2018-03-03T14:24:27.178Z,3.97
2018-03-03T14:26:54.733Z,3.43
2018-03-03T14:29:22.600Z,4.70
2018-03-03T14:31:50.177Z,3.77
2018-03-03T14:34:18.664Z,4.30
2018-03-03T14:36:46.245Z,4.03
2018-03-03T14:39:18.259Z,4.63
2018-03-03T14:41:47.149Z,3.83
2018-03-03T14:44:15.292Z,4.80
2018-03-03T14:46:42.866Z,4.20
2018-03-03T14:49:11.676Z,4.20
2018-03-03T14:51:39.635Z,3.60
2018-03-03T14:54:07.296Z,4.10
2018-03-03T14:56:35.109Z,3.77
2018-03-03T14:59:02.681Z,4.00
2018-03-03T15:01:31.202Z,4.00
2018-03-03T15:03:58.764Z,3.40
2018-03-03T15:06:26.301Z,4.23
2018-03-03T15:08:53.977Z,3.80
2018-03-03T15:11:21.778Z,3.80
2018-03-03T15:13:50.221Z,3.73
2018-03-03T15:16:17.713Z,3.40
2018-03-03T15:18:45.236Z,3.97
2018-03-03T15:21:12.729Z,3.77
2018-03-03T15:23:40.224Z,4.37
2018-03-03T15:26:08.505Z,3.27
2018-03-03T15:28:36.026Z,3.67
2018-03-03T15:31:03.545Z,3.93
2018-03-03T15:33:31.077Z,3.60
2018-03-03T15:35:58.625Z,3.60
2018-03-03T15:38:26.917Z,4.27
2018-03-03T15:40:54.410Z,3.70
2018-03-03T15:43:21.943Z,4.43
2018-03-03T15:45:49.456Z,4.37
2018-03-03T15:48:17.720Z,3.83
2018-03-03T15:50:46.047Z,4.30
2018-03-03T15:53:13.915Z,3.47
2018-03-03T15:55:41.577Z,3.03
2018-03-03T15:58:09.125Z,3.50
2018-03-03T16:00:36.660Z,3.30
2018-03-03T16:03:04.944Z,3.07
2018-03-03T16:05:32.871Z,3.53
2018-03-03T16:08:01.164Z,2.80
2018-03-03T16:10:28.702Z,4.30
2018-03-03T16:12:56.230Z,3.50
2018-03-03T16:15:23.762Z,3.10
2018-03-03T16:17:51.285Z,3.00
2018-03-03T16:20:20.280Z,3.03
2018-03-03T16:22:50.252Z,2.80
2018-03-03T16:25:17.744Z,3.17
2018-03-03T16:27:46.007Z,3.10
2018-03-03T16:30:13.516Z,3.73
2018-03-03T16:32:41.009Z,3.07
2018-03-03T16:35:08.533Z,3.90
2018-03-03T16:37:36.040Z,3.27
2018-03-03T16:40:03.554Z,3.90
2018-03-03T16:42:31.071Z,2.67
2018-03-03T16:44:59.354Z,3.30
2018-03-03T16:47:26.869Z,3.00
2018-03-03T16:49:54.429Z,4.23
2018-03-03T16:52:21.932Z,2.47
2018-03-03T16:54:50.212Z,2.40
2018-03-03T16:57:18.467Z,2.63
2018-03-03T16:59:46.766Z,2.87
2018-03-03T17:02:16.240Z,3.63
2018-03-03T17:04:45.279Z,3.27
2018-03-03T17:07:12.784Z,18.67
2018-03-03T17:09:40.288Z,21.97
2018-03-03T17:12:07.807Z,7.87
2018-03-03T17:14:36.112Z,8.00
2018-03-03T17:17:03.678Z,6.90
2018-03-03T17:19:31.175Z,5.67
2018-03-03T17:21:58.664Z,8.17
2018-03-03T17:24:26.953Z,7.30
2018-03-03T17:26:55.240Z,6.80
2018-03-03T17:29:22.758Z,7.43
2018-03-03T17:31:52.088Z,6.47
2018-03-03T17:34:19.647Z,5.53
2018-03-03T17:36:47.600Z,6.23
2018-03-03T17:39:16.028Z,8.40
2018-03-03T17:41:44.606Z,7.47
2018-03-03T17:44:12.248Z,7.37
2018-03-03T17:46:39.917Z,6.40
2018-03-03T17:49:08.418Z,7.07
2018-03-03T17:51:36.404Z,5.10
2018-03-03T17:54:04.162Z,5.73
2018-03-03T17:56:32.097Z,6.70
2018-03-03T17:59:00.128Z,7.57
2018-03-03T18:01:28.842Z,5.60
2018-03-03T18:03:56.629Z,7.13
2018-03-03T18:06:25.205Z,6.63
2018-03-03T18:08:52.825Z,6.30
2018-03-03T18:11:20.722Z,5.80
2018-03-03T18:13:55.654Z,6.07
2018-03-03T18:16:24.542Z,4.97
2018-03-03T18:18:52.313Z,5.80
2018-03-03T18:21:19.921Z,4.43
2018-03-03T18:23:48.273Z,5.00
2018-03-03T18:26:15.896Z,5.10
2018-03-03T18:28:44.475Z,5.03
2018-03-03T18:31:12.110Z,4.97
2018-03-03T18:33:39.907Z,4.50
2018-03-03T18:36:08.695Z,4.80
2018-03-03T18:38:36.869Z,3.50
2018-03-03T18:41:04.798Z,4.20
2018-03-03T18:43:33.290Z,4.87
2018-03-03T18:46:02.104Z,4.07
2018-03-03T18:48:30.677Z,3.47
2018-03-03T18:50:58.264Z,3.33
2018-03-03T18:53:26.107Z,4.60
2018-03-03T18:55:54.896Z,4.40
2018-03-03T18:58:22.658Z,4.13
2018-03-03T19:00:50.307Z,3.77
2018-03-03T19:03:17.914Z,3.40
2018-03-03T19:05:45.527Z,4.43
2018-03-03T19:08:13.145Z,3.70
2018-03-03T19:10:41.676Z,3.23
2018-03-03T19:13:10.362Z,3.80
2018-03-03T19:15:38.228Z,3.80
2018-03-03T19:18:05.929Z,3.10
2018-03-03T19:20:34.280Z,3.47
2018-03-03T19:23:01.848Z,3.17
2018-03-03T19:25:29.375Z,3.77
2018-03-03T19:27:57.041Z,3.43
2018-03-03T19:30:25.932Z,3.33
2018-03-03T19:32:53.502Z,3.50
2018-03-03T19:35:21.049Z,3.30
2018-03-03T19:37:48.577Z,3.33
2018-03-03T19:40:17.464Z,3.57
2018-03-03T19:42:45.753Z,3.37
2018-03-03T19:45:13.245Z,2.90
2018-03-03T19:47:40.765Z,3.43
2018-03-03T19:50:08.261Z,2.80
2018-03-03T19:52:35.757Z,3.70
2018-03-03T19:55:04.053Z,3.50
2018-03-03T19:57:32.537Z,3.50
2018-03-03T20:00:00.053Z,3.20
2018-03-03T20:02:28.341Z,3.50
2018-03-03T20:04:56.601Z,3.03
2018-03-03T20:07:24.219Z,3.37
2018-03-03T20:09:51.738Z,3.90
2018-03-03T20:12:20.932Z,3.10
2018-03-03T20:14:48.444Z,3.40
2018-03-03T20:17:15.944Z,3.47
2018-03-03T20:19:45.182Z,4.30
2018-03-03T20:22:12.692Z,4.13
2018-03-03T20:24:40.957Z,4.70
2018-03-03T20:27:08.483Z,4.13
2018-03-03T20:29:36.001Z,3.20
2018-03-03T20:32:04.305Z,3.67
2018-03-03T20:34:31.844Z,3.47
2018-03-03T20:36:59.334Z,3.17
2018-03-03T20:39:26.849Z,4.30
2018-03-03T20:41:56.063Z,3.70
2018-03-03T20:44:23.567Z,3.73
2018-03-03T20:46:51.108Z,3.07
2018-03-03T20:49:19.656Z,3.87
2018-03-03T20:51:47.165Z,3.17
2018-03-03T20:54:14.694Z,3.20
2018-03-03T20:56:42.181Z,3.70
2018-03-03T20:59:09.680Z,3.90
2018-03-03T21:01:37.222Z,3.17
2018-03-03T21:04:05.480Z,4.40
2018-03-03T21:06:32.999Z,4.50
2018-03-03T21:09:00.500Z,3.07
2018-03-03T21:14:28.611Z,3.23
2018-03-03T21:16:56.896Z,3.70
2018-03-03T21:19:24.415Z,3.97
2018-03-03T21:21:51.930Z,3.50
2018-03-03T21:24:19.430Z,3.80
2018-03-03T21:26:46.925Z,3.87
2018-03-03T21:29:14.441Z,4.60
2018-03-03T21:31:41.965Z,3.97
2018-03-03T21:34:09.487Z,3.30
2018-03-03T21:36:37.005Z,3.47
2018-03-03T21:39:04.502Z,3.40
2018-03-03T21:41:32.000Z,3.20
2018-03-03T21:43:59.512Z,3.93
2018-03-03T21:46:27.772Z,3.63
2018-03-03T21:48:58.044Z,4.07
2018-03-03T21:51:25.560Z,3.70
2018-03-03T21:53:53.817Z,4.20
2018-03-03T21:56:21.340Z,3.10
2018-03-03T21:58:48.857Z,3.20
2018-03-03T22:01:17.150Z,3.77
2018-03-03T22:03:44.769Z,3.80
2018-03-03T22:06:13.028Z,3.90
2018-03-03T22:08:40.552Z,3.73
2018-03-03T22:11:28.294Z,3.30
2018-03-03T22:31:30.568Z,3.40
2018-03-03T22:34:04.577Z,4.03
2018-03-03T22:36:41.253Z,3.30
2018-03-03T22:39:17.818Z,2.53
2018-03-03T22:41:53.364Z,3.20
2018-03-03T22:44:30.460Z,3.43
2018-03-03T22:47:05.888Z,3.70
2018-03-03T22:49:43.461Z,3.03
2018-03-03T22:52:20.157Z,2.80
2018-03-03T22:54:57.848Z,2.43
2018-03-03T22:57:41.483Z,3.23
2018-03-03T23:00:18.459Z,3.53
2018-03-03T23:02:55.959Z,3.70
